Time;durP1;ratioP1;P1;durP2;ratioP2;P2;SDS_P1;SDS_P2;PMS_P1;PMS_P2;Temp;Humidity;BMP_temperature;BMP_pressure;BME280_temperature;BME280_humidity;BME280_pressure;Samples;Min_cycle;Max_cycle;Signal;HPM_P1;HPM_P2
2021/12/23 00:01:13;;;;;;;26.15;15.00;;;;;;;;;;5096251;28;20392;-74
2021/12/23 00:03:40;;;;;;;21.42;12.57;;;;;;;;;;5096218;28;20073;-74
2021/12/23 00:06:06;;;;;;;23.10;12.43;;;;;;;;;;5095598;28;20046;-74
2021/12/23 00:08:33;;;;;;;23.88;12.85;;;;;;;;;;5096157;28;20021;-74
2021/12/23 00:10:59;;;;;;;23.40;11.35;;;;;;;;;;5096116;28;20480;-74
2021/12/23 00:13:26;;;;;;;21.75;11.07;;;;;;;;;;5095725;28;20024;-74
2021/12/23 00:23:49;;;;;;;24.60;11.63;;;;;;;;;;5095763;28;20062;-74
2021/12/23 00:26:16;;;;;;;27.33;11.95;;;;;;;;;;5095672;28;20028;-73
2021/12/23 00:28:42;;;;;;;20.80;10.68;;;;;;;;;;5095228;28;20024;-72
2021/12/23 00:31:08;;;;;;;17.08;9.38;;;;;;;;;;5095605;28;20020;-72
2021/12/23 00:33:36;;;;;;;23.38;10.48;;;;;;;;;;5095626;28;20021;-72
2021/12/23 00:36:04;;;;;;;24.42;12.00;;;;;;;;;;5095137;28;20020;-72
2021/12/23 00:38:37;;;;;;;28.70;12.68;;;;;;;;;;5095691;28;20567;-73
2021/12/23 00:41:04;;;;;;;23.65;12.10;;;;;;;;;;5095060;28;20031;-73
2021/12/23 00:43:31;;;;;;;22.10;12.35;;;;;;;;;;5095247;28;20034;-71
2021/12/23 00:45:57;;;;;;;22.88;11.98;;;;;;;;;;5095586;28;20028;-73
2021/12/23 00:48:24;;;;;;;29.65;13.13;;;;;;;;;;5094959;28;20016;-73
2021/12/23 00:50:51;;;;;;;23.58;12.57;;;;;;;;;;5095293;28;20027;-73
2021/12/23 00:53:19;;;;;;;27.08;12.60;;;;;;;;;;5095670;28;20024;-73
2021/12/23 00:55:49;;;;;;;23.40;9.57;;;;;;;;;;5094691;28;20032;-73
2021/12/23 00:58:15;;;;;;;16.83;8.30;;;;;;;;;;5095371;28;20021;-72
2021/12/23 01:00:42;;;;;;;19.80;9.70;;;;;;;;;;5095069;28;20074;-73
2021/12/23 01:03:08;;;;;;;17.73;9.23;;;;;;;;;;5094767;28;20040;-73
2021/12/23 01:05:35;;;;;;;15.65;8.60;;;;;;;;;;5094831;28;20043;-73
2021/12/23 01:08:01;;;;;;;19.55;9.77;;;;;;;;;;5094917;28;20012;-73
2021/12/23 01:10:27;;;;;;;15.88;7.75;;;;;;;;;;5094467;28;20024;-72
2021/12/23 01:13:00;;;;;;;17.45;8.88;;;;;;;;;;5094706;28;20020;-73
2021/12/23 01:17:55;;;;;;;17.38;7.93;;;;;;;;;;5094359;28;19930;-73
2021/12/23 01:20:28;;;;;;;18.65;8.45;;;;;;;;;;5094661;28;20019;-73
2021/12/23 01:22:57;;;;;;;19.42;8.73;;;;;;;;;;5094894;28;20024;-72
2021/12/23 01:25:23;;;;;;;18.55;8.90;;;;;;;;;;5094206;28;20032;-73
2021/12/23 01:27:49;;;;;;;18.10;8.70;;;;;;;;;;5094368;28;20020;-74
2021/12/23 01:30:17;;;;;;;16.23;8.23;;;;;;;;;;5093459;28;20391;-73
2021/12/23 01:32:44;;;;;;;16.27;7.97;;;;;;;;;;5094358;28;20024;-72
2021/12/23 01:35:10;;;;;;;15.30;7.10;;;;;;;;;;5094565;28;20020;-73
2021/12/23 01:37:36;;;;;;;15.20;7.40;;;;;;;;;;5093949;28;20036;-73
2021/12/23 01:40:04;;;;;;;14.55;7.05;;;;;;;;;;5094391;28;20483;-72
2021/12/23 01:42:30;;;;;;;11.43;5.97;;;;;;;;;;5094283;28;20020;-73
2021/12/23 01:44:56;;;;;;;16.05;7.82;;;;;;;;;;5093746;28;20504;-73
2021/12/23 01:47:23;;;;;;;14.52;6.18;;;;;;;;;;5094327;28;20029;-72
2021/12/23 01:49:49;;;;;;;21.70;8.93;;;;;;;;;;5094121;28;20020;-73
2021/12/23 01:52:16;;;;;;;16.55;8.80;;;;;;;;;;5093901;28;20047;-73
2021/12/23 01:54:42;;;;;;;20.10;9.30;;;;;;;;;;5093936;28;20020;-72
2021/12/23 01:57:09;;;;;;;18.67;8.98;;;;;;;;;;5094002;28;20020;-72
2021/12/23 01:59:35;;;;;;;17.08;8.18;;;;;;;;;;5093416;28;20471;-72
2021/12/23 02:02:01;;;;;;;14.27;8.00;;;;;;;;;;5094914;28;20059;-73
2021/12/23 02:04:28;;;;;;;17.35;9.23;;;;;;;;;;5094094;28;20031;-73
2021/12/23 02:06:54;;;;;;;20.85;8.90;;;;;;;;;;5093511;28;20024;-73
2021/12/23 02:09:20;;;;;;;17.45;8.77;;;;;;;;;;5093730;28;20099;-72
2021/12/23 02:11:46;;;;;;;15.70;8.27;;;;;;;;;;5093830;28;20125;-72
2021/12/23 02:14:13;;;;;;;15.00;8.05;;;;;;;;;;5093347;28;20028;-72
2021/12/23 02:16:40;;;;;;;16.45;8.15;;;;;;;;;;5093687;28;20076;-73
2021/12/23 02:19:15;;;;;;;12.98;6.70;;;;;;;;;;5093635;28;20020;-73
2021/12/23 02:21:45;;;;;;;15.65;8.63;;;;;;;;;;5093262;28;20028;-72
2021/12/23 02:24:11;;;;;;;18.65;10.35;;;;;;;;;;5093571;28;20050;-72
2021/12/23 02:26:40;;;;;;;21.63;11.40;;;;;;;;;;5093120;28;20024;-73
2021/12/23 02:29:07;;;;;;;25.85;10.93;;;;;;;;;;5093787;28;20553;-72
2021/12/23 02:31:33;;;;;;;19.15;9.48;;;;;;;;;;5093509;28;20487;-72
2021/12/23 02:33:59;;;;;;;19.27;10.18;;;;;;;;;;5093294;28;20376;-72
2021/12/23 02:36:30;;;;;;;15.38;8.75;;;;;;;;;;5093521;28;20029;-72
2021/12/23 02:38:57;;;;;;;19.23;9.35;;;;;;;;;;5092924;28;20040;-73
2021/12/23 02:41:23;;;;;;;32.90;13.75;;;;;;;;;;5092991;28;20059;-73
2021/12/23 02:43:50;;;;;;;28.15;13.25;;;;;;;;;;5093370;28;20448;-73
2021/12/23 02:46:19;;;;;;;30.50;13.10;;;;;;;;;;5093337;28;20028;-73
2021/12/23 02:48:46;;;;;;;24.42;11.07;;;;;;;;;;5092950;28;20028;-73
2021/12/23 02:51:14;;;;;;;22.33;10.43;;;;;;;;;;5093151;28;20472;-73
2021/12/23 02:53:40;;;;;;;22.65;11.30;;;;;;;;;;5093396;28;20047;-72
2021/12/23 02:56:08;;;;;;;19.25;9.32;;;;;;;;;;5092891;28;20067;-72
2021/12/23 02:58:34;;;;;;;14.82;8.35;;;;;;;;;;5093203;28;20051;-72
2021/12/23 03:01:01;;;;;;;21.60;9.80;;;;;;;;;;5093242;28;20056;-72
2021/12/23 03:03:27;;;;;;;17.70;8.73;;;;;;;;;;5092804;28;20024;-73
2021/12/23 03:05:55;;;;;;;23.63;13.13;;;;;;;;;;5093245;28;20032;-73
2021/12/23 03:08:32;;;;;;;22.77;12.55;;;;;;;;;;5093364;28;20024;-72
2021/12/23 03:10:58;;;;;;;26.38;12.38;;;;;;;;;;5092727;28;20060;-72
2021/12/23 03:13:25;;;;;;;21.23;12.65;;;;;;;;;;5093144;28;20046;-72
2021/12/23 03:15:52;;;;;;;28.38;13.60;;;;;;;;;;5092640;28;20091;-72
2021/12/23 03:18:18;;;;;;;24.83;11.88;;;;;;;;;;5093065;28;20051;-72
2021/12/23 03:20:44;;;;;;;28.42;13.27;;;;;;;;;;5092958;28;20035;-73
2021/12/23 03:23:10;;;;;;;31.00;13.88;;;;;;;;;;5092632;28;20358;-72
2021/12/23 03:25:36;;;;;;;26.27;11.73;;;;;;;;;;5093189;28;20062;-72
2021/12/23 03:28:03;;;;;;;21.75;11.43;;;;;;;;;;5092977;28;20020;-73
2021/12/23 03:30:29;;;;;;;25.65;11.77;;;;;;;;;;5092501;28;20020;-72
2021/12/23 03:32:55;;;;;;;28.98;13.25;;;;;;;;;;5092948;28;20387;-72
2021/12/23 03:35:22;;;;;;;26.73;13.75;;;;;;;;;;5092959;28;20039;-72
2021/12/23 03:37:48;;;;;;;27.38;14.20;;;;;;;;;;5092646;28;20465;-73
2021/12/23 03:40:14;;;;;;;31.05;14.52;;;;;;;;;;5092906;28;20036;-72
2021/12/23 03:42:40;;;;;;;44.15;21.60;;;;;;;;;;5092942;28;20031;-72
2021/12/23 03:45:08;;;;;;;33.90;17.33;;;;;;;;;;5092076;28;20103;-73
2021/12/23 03:47:35;;;;;;;46.80;24.08;;;;;;;;;;5092730;28;20021;-73
2021/12/23 03:50:01;;;;;;;37.22;19.17;;;;;;;;;;5092768;28;20476;-73
2021/12/23 03:52:27;;;;;;;37.97;20.90;;;;;;;;;;5093892;28;20053;-72
2021/12/23 03:54:53;;;;;;;52.22;24.50;;;;;;;;;;5096398;28;20091;-72
2021/12/23 03:57:20;;;;;;;43.72;23.35;;;;;;;;;;5096342;28;20032;-72
2021/12/23 03:59:46;;;;;;;43.67;21.77;;;;;;;;;;5095962;28;20028;-72
2021/12/23 04:02:12;;;;;;;31.25;15.55;;;;;;;;;;5096377;28;20361;-72
2021/12/23 04:04:38;;;;;;;36.17;16.38;;;;;;;;;;5096169;28;20032;-72
2021/12/23 04:07:05;;;;;;;30.70;14.65;;;;;;;;;;5095965;28;20032;-72
2021/12/23 04:09:31;;;;;;;31.02;16.25;;;;;;;;;;5096172;28;20022;-72
2021/12/23 04:11:57;;;;;;;35.15;16.95;;;;;;;;;;5095573;28;20476;-72
2021/12/23 04:14:23;;;;;;;35.33;18.92;;;;;;;;;;5096043;28;20071;-72
2021/12/23 04:16:49;;;;;;;48.85;24.20;;;;;;;;;;5096020;28;20020;-72
2021/12/23 04:19:16;;;;;;;50.17;23.15;;;;;;;;;;5095614;28;20119;-72
2021/12/23 04:21:42;;;;;;;50.35;23.33;;;;;;;;;;5095872;28;20074;-72
2021/12/23 04:24:09;;;;;;;58.63;29.92;;;;;;;;;;5095736;28;20082;-72
2021/12/23 04:26:37;;;;;;;53.92;28.38;;;;;;;;;;5095557;28;20032;-72
2021/12/23 04:29:04;;;;;;;52.65;28.20;;;;;;;;;;5095826;28;20502;-72
2021/12/23 04:31:31;;;;;;;45.17;24.05;;;;;;;;;;5094395;28;20476;-72
2021/12/23 04:33:57;;;;;;;43.45;20.50;;;;;;;;;;5095249;28;20036;-72
2021/12/23 04:36:27;;;;;;;37.53;19.20;;;;;;;;;;5095857;28;20444;-72
2021/12/23 04:38:53;;;;;;;36.42;17.38;;;;;;;;;;5095727;28;20024;-72
2021/12/23 04:41:20;;;;;;;32.20;19.83;;;;;;;;;;5095131;28;20020;-72
2021/12/23 04:43:46;;;;;;;41.85;22.70;;;;;;;;;;5095508;28;20020;-72
2021/12/23 04:46:12;;;;;;;38.72;21.58;;;;;;;;;;5095421;28;20047;-72
2021/12/23 04:48:38;;;;;;;50.33;24.70;;;;;;;;;;5094847;28;20043;-73
2021/12/23 04:51:05;;;;;;;37.53;22.90;;;;;;;;;;5095408;28;20388;-72
2021/12/23 04:53:31;;;;;;;38.45;21.25;;;;;;;;;;5095142;28;20492;-72
2021/12/23 04:55:57;;;;;;;45.25;22.80;;;;;;;;;;5094820;28;20111;-72
2021/12/23 04:58:24;;;;;;;51.75;24.33;;;;;;;;;;5095413;28;20031;-72
2021/12/23 05:00:51;;;;;;;52.95;26.77;;;;;;;;;;5095155;28;20540;-73
2021/12/23 05:03:18;;;;;;;48.67;21.70;;;;;;;;;;5094726;28;20052;-72
2021/12/23 05:05:45;;;;;;;37.03;16.95;;;;;;;;;;5095240;28;20178;-74
2021/12/23 05:08:12;;;;;;;36.13;17.77;;;;;;;;;;5094779;28;20373;-72
2021/12/23 05:10:38;;;;;;;72.22;27.52;;;;;;;;;;5094902;28;20103;-72
2021/12/23 05:13:04;;;;;;;77.00;30.75;;;;;;;;;;5094959;28;20022;-72
2021/12/23 05:15:31;;;;;;;60.72;24.42;;;;;;;;;;5094405;28;20074;-72
2021/12/23 05:17:57;;;;;;;58.15;30.05;;;;;;;;;;5094717;28;20507;-72
2021/12/23 05:20:23;;;;;;;83.18;34.20;;;;;;;;;;5094713;28;20039;-68
2021/12/23 05:22:50;;;;;;;75.47;34.08;;;;;;;;;;5094289;28;20046;-69
2021/12/23 05:25:17;;;;;;;71.82;31.58;;;;;;;;;;5094479;28;20039;-69
2021/12/23 05:27:43;;;;;;;74.07;29.27;;;;;;;;;;5094504;28;20070;-69
2021/12/23 05:30:12;;;;;;;70.68;30.65;;;;;;;;;;5094116;28;20020;-69
2021/12/23 05:32:38;;;;;;;65.63;33.38;;;;;;;;;;5094332;28;20444;-69
2021/12/23 05:35:04;;;;;;;68.28;32.22;;;;;;;;;;5094310;28;20035;-68
2021/12/23 05:37:31;;;;;;;59.78;30.73;;;;;;;;;;5093957;28;20016;-68
2021/12/23 05:39:57;;;;;;;58.45;31.77;;;;;;;;;;5094568;28;20116;-69
2021/12/23 05:42:23;;;;;;;62.83;32.88;;;;;;;;;;5094359;28;20056;-69
2021/12/23 05:44:49;;;;;;;65.57;30.83;;;;;;;;;;5093649;28;20044;-69
2021/12/23 05:47:16;;;;;;;152.07;61.40;;;;;;;;;;5094791;28;20031;-69
2021/12/23 05:49:42;;;;;;;124.60;55.13;;;;;;;;;;5094148;28;20016;-68
2021/12/23 05:52:08;;;;;;;114.70;46.28;;;;;;;;;;5093717;28;20538;-68
2021/12/23 05:54:34;;;;;;;115.65;50.13;;;;;;;;;;5094254;28;20027;-68
2021/12/23 05:57:02;;;;;;;122.75;51.58;;;;;;;;;;5094539;28;20020;-68
2021/12/23 05:59:32;;;;;;;91.65;43.55;;;;;;;;;;5093642;28;20103;-68
2021/12/23 06:01:59;;;;;;;75.45;35.70;;;;;;;;;;5093962;28;20016;-68
2021/12/23 06:04:26;;;;;;;71.30;36.97;;;;;;;;;;5093414;28;20097;-68
2021/12/23 06:06:52;;;;;;;66.85;32.33;;;;;;;;;;5093843;28;20023;-70
2021/12/23 06:09:19;;;;;;;49.38;23.88;;;;;;;;;;5092249;28;20085;-71
2021/12/23 06:11:45;;;;;;;43.35;22.05;;;;;;;;;;5093054;28;20020;-68
2021/12/23 06:14:11;;;;;;;47.25;23.30;;;;;;;;;;5093513;28;20047;-70
2021/12/23 06:16:37;;;;;;;46.45;22.23;;;;;;;;;;5092946;28;20032;-69
2021/12/23 06:19:04;;;;;;;47.35;22.65;;;;;;;;;;5092967;28;20024;-70
2021/12/23 06:21:31;;;;;;;51.92;25.33;;;;;;;;;;5091069;28;20066;-69
2021/12/23 06:23:58;;;;;;;41.85;21.65;;;;;;;;;;5092762;28;20016;-70
2021/12/23 06:26:25;;;;;;;49.63;23.60;;;;;;;;;;5077260;28;20035;-69
2021/12/23 06:28:51;;;;;;;41.42;22.35;;;;;;;;;;5073250;28;20517;-69
2021/12/23 06:31:17;;;;;;;44.60;23.63;;;;;;;;;;5072914;28;20027;-69
2021/12/23 06:33:43;;;;;;;43.17;22.05;;;;;;;;;;5072577;28;20507;-70
2021/12/23 06:36:09;;;;;;;46.05;23.65;;;;;;;;;;5071358;28;20025;-72
2021/12/23 06:38:36;;;;;;;51.40;22.30;;;;;;;;;;5071812;28;20354;-71
2021/12/23 06:41:02;;;;;;;48.20;23.02;;;;;;;;;;5082702;28;20495;-69
2021/12/23 06:43:28;;;;;;;33.63;17.23;;;;;;;;;;5092192;28;20484;-72
2021/12/23 06:45:54;;;;;;;45.10;22.17;;;;;;;;;;5074234;28;20075;-71
2021/12/23 06:48:21;;;;;;;44.53;21.65;;;;;;;;;;5072600;28;20017;-70
2021/12/23 06:50:47;;;;;;;43.38;22.13;;;;;;;;;;5073071;28;20025;-71
2021/12/23 06:53:14;;;;;;;51.28;27.27;;;;;;;;;;5073023;28;20090;-71
2021/12/23 06:55:43;;;;;;;60.45;29.20;;;;;;;;;;5072526;28;20536;-72
2021/12/23 06:58:09;;;;;;;59.90;30.08;;;;;;;;;;5079020;28;20540;-72
2021/12/23 07:00:35;;;;;;;79.50;38.15;;;;;;;;;;5075539;28;20028;-71
2021/12/23 07:03:02;;;;;;;49.58;29.35;;;;;;;;;;5072647;28;20052;-74
2021/12/23 07:05:28;;;;;;;41.30;22.67;;;;;;;;;;5072503;28;20040;-71
2021/12/23 07:08:05;;;;;;;34.97;20.58;;;;;;;;;;5073061;28;20020;-71
2021/12/23 07:10:32;;;;;;;46.28;23.85;;;;;;;;;;5072849;28;20104;-71
2021/12/23 07:13:00;;;;;;;45.42;22.45;;;;;;;;;;5072373;28;20020;-73
2021/12/23 07:15:26;;;;;;;47.40;21.75;;;;;;;;;;5072521;28;20135;-71
2021/12/23 07:17:54;;;;;;;59.28;28.67;;;;;;;;;;5070331;28;20021;-72
2021/12/23 07:20:20;;;;;;;49.53;24.65;;;;;;;;;;5068912;28;20074;-72
2021/12/23 07:22:46;;;;;;;41.25;21.67;;;;;;;;;;5086899;28;20024;-68
2021/12/23 07:25:13;;;;;;;30.27;17.27;;;;;;;;;;5090257;28;20043;-67
2021/12/23 07:27:39;;;;;;;55.55;25.85;;;;;;;;;;5092756;28;20539;-68
2021/12/23 07:30:06;;;;;;;47.50;23.55;;;;;;;;;;5094289;28;20024;-64
2021/12/23 07:32:32;;;;;;;46.28;23.17;;;;;;;;;;5095756;28;20024;-66
2021/12/23 07:34:58;;;;;;;33.65;20.48;;;;;;;;;;5089001;28;20027;-67
2021/12/23 07:37:25;;;;;;;35.35;19.58;;;;;;;;;;5095494;28;20353;-66
2021/12/23 07:39:53;;;;;;;31.70;17.55;;;;;;;;;;5096373;28;20024;-68
2021/12/23 07:42:20;;;;;;;37.90;20.35;;;;;;;;;;5095751;28;20484;-68
2021/12/23 07:44:46;;;;;;;42.90;22.77;;;;;;;;;;5095505;28;20093;-67
2021/12/23 07:47:13;;;;;;;55.30;29.63;;;;;;;;;;5096093;28;20028;-67
2021/12/23 07:49:39;;;;;;;51.50;26.90;;;;;;;;;;5095531;28;20028;-67
2021/12/23 07:52:09;;;;;;;40.55;23.02;;;;;;;;;;5095545;28;20028;-69
2021/12/23 07:54:35;;;;;;;41.33;24.20;;;;;;;;;;5095594;28;20153;-68
2021/12/23 07:57:02;;;;;;;36.55;20.13;;;;;;;;;;5092469;28;20042;-67
2021/12/23 07:59:28;;;;;;;42.25;21.38;;;;;;;;;;5095358;28;20039;-67
2021/12/23 08:01:58;;;;;;;45.22;26.48;;;;;;;;;;5094845;28;20055;-68
2021/12/23 08:04:25;;;;;;;40.05;23.95;;;;;;;;;;5092546;28;20051;-68
2021/12/23 08:06:57;;;;;;;35.35;19.92;;;;;;;;;;5094211;28;20024;-68
2021/12/23 08:09:27;;;;;;;37.75;21.58;;;;;;;;;;5093933;28;20026;-67
2021/12/23 08:11:54;;;;;;;44.97;26.10;;;;;;;;;;5094908;28;20012;-69
2021/12/23 08:14:21;;;;;;;49.10;25.35;;;;;;;;;;5091952;28;20078;-68
2021/12/23 08:16:47;;;;;;;51.65;26.73;;;;;;;;;;5094802;28;20464;-69
2021/12/23 08:19:16;;;;;;;55.00;27.73;;;;;;;;;;5094846;28;20416;-68
2021/12/23 08:21:43;;;;;;;40.83;24.00;;;;;;;;;;5095228;28;20029;-69
2021/12/23 08:24:09;;;;;;;40.50;25.50;;;;;;;;;;5093715;28;20024;-69
2021/12/23 08:26:40;;;;;;;31.95;16.00;;;;;;;;;;5093110;28;20077;-68
2021/12/23 08:29:08;;;;;;;34.33;18.08;;;;;;;;;;5093482;28;20099;-68
2021/12/23 08:31:34;;;;;;;26.75;14.68;;;;;;;;;;5093311;28;20032;-68
2021/12/23 08:34:01;;;;;;;30.42;17.42;;;;;;;;;;5092962;28;20020;-67
2021/12/23 08:36:27;;;;;;;44.40;20.60;;;;;;;;;;5093552;28;20044;-68
2021/12/23 08:38:53;;;;;;;40.47;20.55;;;;;;;;;;5093506;28;20028;-67
2021/12/23 08:41:19;;;;;;;103.88;54.63;;;;;;;;;;5091738;28;20047;-67
2021/12/23 08:43:46;;;;;;;39.20;24.13;;;;;;;;;;5091533;28;20024;-67
2021/12/23 08:46:12;;;;;;;47.78;20.15;;;;;;;;;;5093100;28;20494;-66
2021/12/23 08:48:38;;;;;;;66.13;30.30;;;;;;;;;;5093729;28;20072;-67
2021/12/23 08:51:04;;;;;;;59.95;34.65;;;;;;;;;;5092893;28;20377;-66
2021/12/23 08:53:31;;;;;;;39.55;20.00;;;;;;;;;;5091657;28;20016;-67
2021/12/23 08:56:00;;;;;;;26.98;14.43;;;;;;;;;;5094226;28;20035;-66
2021/12/23 08:58:26;;;;;;;34.58;18.65;;;;;;;;;;5093009;28;20035;-66
2021/12/23 09:00:52;;;;;;;31.10;18.02;;;;;;;;;;5092143;28;20016;-68
2021/12/23 09:03:18;;;;;;;27.65;15.15;;;;;;;;;;5093790;28;20028;-68
2021/12/23 09:05:45;;;;;;;24.30;13.25;;;;;;;;;;5093239;28;20024;-72
2021/12/23 09:08:11;;;;;;;16.98;9.93;;;;;;;;;;5090682;28;20028;-69
2021/12/23 09:10:37;;;;;;;21.60;11.85;;;;;;;;;;5094162;28;20030;-71
2021/12/23 09:13:04;;;;;;;18.98;11.75;;;;;;;;;;5094182;28;20054;-69
2021/12/23 09:15:30;;;;;;;22.50;13.68;;;;;;;;;;5093346;28;20084;-69
2021/12/23 09:17:57;;;;;;;26.08;15.52;;;;;;;;;;5094214;28;20056;-69
2021/12/23 09:20:23;;;;;;;25.55;14.60;;;;;;;;;;5092991;28;20456;-72
2021/12/23 09:22:50;;;;;;;25.95;15.25;;;;;;;;;;5091658;28;20540;-69
2021/12/23 09:25:25;;;;;;;19.48;11.38;;;;;;;;;;5092310;28;20447;-68
2021/12/23 09:28:29;;;;;;;24.58;13.88;;;;;;;;;;5092290;28;20077;-70
2021/12/23 09:33:29;;;;;;;21.15;12.00;;;;;;;;;;5093141;28;20055;-69
2021/12/23 09:35:56;;;;;;;22.25;11.38;;;;;;;;;;5093825;28;20028;-68
2021/12/23 09:38:27;;;;;;;21.27;12.82;;;;;;;;;;5093939;28;20156;-67
2021/12/23 09:41:05;;;;;;;22.40;12.43;;;;;;;;;;5094286;28;20036;-69
2021/12/23 09:43:32;;;;;;;33.55;20.15;;;;;;;;;;5093532;28;20533;-69
2021/12/23 09:45:59;;;;;;;22.52;13.52;;;;;;;;;;5092844;28;20051;-70
2021/12/23 09:48:27;;;;;;;25.30;16.00;;;;;;;;;;5094130;28;20096;-69
2021/12/23 09:50:54;;;;;;;21.25;13.23;;;;;;;;;;5092891;28;20085;-73
2021/12/23 09:53:23;;;;;;;20.95;11.35;;;;;;;;;;5093978;28;20028;-73
2021/12/23 09:55:50;;;;;;;29.35;15.05;;;;;;;;;;5093968;28;20020;-73
2021/12/23 09:58:16;;;;;;;28.48;14.45;;;;;;;;;;5093430;28;20049;-78
2021/12/23 10:00:46;;;;;;;16.83;10.20;;;;;;;;;;5092908;28;20054;-74
2021/12/23 10:03:17;;;;;;;30.30;17.30;;;;;;;;;;5082328;28;20030;-72
2021/12/23 10:05:43;;;;;;;19.15;10.85;;;;;;;;;;5073199;28;20055;-72
2021/12/23 10:08:11;;;;;;;27.48;14.30;;;;;;;;;;5073348;28;20031;-70
2021/12/23 10:10:53;;;;;;;19.67;9.85;;;;;;;;;;5073225;28;20016;-69
2021/12/23 10:38:18;;;;;;;35.13;16.38;;;;;;;;;;5089471;28;20093;-71
2021/12/23 10:40:46;;;;;;;15.02;8.10;;;;;;;;;;5091444;28;20353;-68
2021/12/23 10:43:33;;;;;;;46.50;21.38;;;;;;;;;;5092608;28;20031;-70
2021/12/23 10:46:01;;;;;;;18.10;9.95;;;;;;;;;;5092231;28;20040;-70
2021/12/23 10:48:31;;;;;;;35.10;15.43;;;;;;;;;;5092483;28;20050;-76
2021/12/23 10:51:03;;;;;;;15.73;9.23;;;;;;;;;;5092405;28;20504;-72
2021/12/23 10:53:43;;;;;;;41.40;22.65;;;;;;;;;;5089438;28;20344;-71
2021/12/23 10:59:26;;;;;;;20.40;8.30;;;;;;;;;;5092929;28;20372;-70
2021/12/23 11:02:07;;;;;;;14.93;7.97;;;;;;;;;;5074593;28;20043;-73
2021/12/23 11:04:38;;;;;;;15.52;8.98;;;;;;;;;;5093706;28;20039;-72
2021/12/23 11:07:13;;;;;;;18.30;10.50;;;;;;;;;;5096409;28;20024;-70
2021/12/23 11:09:54;;;;;;;22.80;10.85;;;;;;;;;;5082745;28;20032;-71
2021/12/23 11:38:08;;;;;;;11.00;5.45;;;;;;;;;;5076641;28;20044;-74
2021/12/23 11:40:52;;;;;;;8.25;4.50;;;;;;;;;;5094275;28;20043;-71
2021/12/23 11:45:47;;;;;;;10.98;5.45;;;;;;;;;;5093013;28;19975;-73
2021/12/23 11:48:14;;;;;;;13.25;6.93;;;;;;;;;;5092156;28;20119;-71
2021/12/23 11:50:54;;;;;;;15.52;8.35;;;;;;;;;;5092418;28;20670;-72
2021/12/23 11:53:21;;;;;;;11.35;6.22;;;;;;;;;;5093641;28;20026;-72
2021/12/23 11:55:49;;;;;;;28.20;14.70;;;;;;;;;;5094519;28;20722;-75
2021/12/23 12:00:31;;;;;;;33.72;18.30;;;;;;;;;;5067818;28;20392;-70
2021/12/23 12:03:01;;;;;;;20.17;10.55;;;;;;;;;;5066548;28;20108;-71
2021/12/23 12:06:39;;;;;;;16.67;8.82;;;;;;;;;;5107856;27;20388;-69
2021/12/23 12:11:13;;;;;;;12.45;5.47;;;;;;;;;;5108776;27;20908;-70
2021/12/23 12:13:39;;;;;;;7.47;3.97;;;;;;;;;;5109429;28;20028;-69
2021/12/23 12:18:56;;;;;;;11.63;6.63;;;;;;;;;;5110665;27;20520;-68
2021/12/23 12:21:28;;;;;;;13.43;8.70;;;;;;;;;;5110743;28;20031;-69
2021/12/23 12:24:12;;;;;;;11.07;6.68;;;;;;;;;;5110563;28;20012;-67
2021/12/23 12:29:26;;;;;;;12.30;6.30;;;;;;;;;;5110808;27;20123;-69
2021/12/23 12:31:53;;;;;;;8.18;3.90;;;;;;;;;;5110204;28;20016;-68
2021/12/23 12:34:19;;;;;;;8.45;4.50;;;;;;;;;;5110684;28;20102;-69
2021/12/23 12:39:10;;;;;;;5.68;3.30;;;;;;;;;;5103052;27;20389;-71
2021/12/23 12:41:38;;;;;;;7.75;4.10;;;;;;;;;;5110434;28;20488;-70
2021/12/23 12:44:40;;;;;;;12.55;7.45;;;;;;;;;;5109419;27;20392;-69
2021/12/23 12:47:12;;;;;;;11.05;5.78;;;;;;;;;;5106888;28;20021;-70
2021/12/23 12:54:43;;;;;;;19.23;11.20;;;;;;;;;;5127677;27;20111;-69
2021/12/23 12:57:47;;;;;;;9.68;5.53;;;;;;;;;;5108984;27;20787;-69
2021/12/23 13:00:20;;;;;;;12.82;6.28;;;;;;;;;;5109080;28;20051;-70
2021/12/23 13:03:17;;;;;;;10.05;4.95;;;;;;;;;;5110458;27;20756;-72
2021/12/23 13:05:47;;;;;;;13.55;7.15;;;;;;;;;;5110541;28;20483;-72
2021/12/23 13:08:33;;;;;;;14.65;7.78;;;;;;;;;;5109743;28;20034;-73
2021/12/23 13:13:05;;;;;;;14.02;8.60;;;;;;;;;;5110636;27;20397;-71
2021/12/23 13:15:31;;;;;;;14.90;9.60;;;;;;;;;;5110104;28;20032;-72
2021/12/23 13:19:20;;;;;;;17.33;9.02;;;;;;;;;;5110434;27;20446;-72
2021/12/23 13:21:47;;;;;;;19.60;8.68;;;;;;;;;;5107389;28;20032;-70
2021/12/23 13:24:14;;;;;;;13.70;7.57;;;;;;;;;;5109779;28;20032;-68
2021/12/23 13:26:41;;;;;;;15.15;8.70;;;;;;;;;;5110155;28;20046;-74
2021/12/23 13:29:09;;;;;;;16.73;8.90;;;;;;;;;;5109073;28;20376;-71
2021/12/23 13:31:36;;;;;;;21.90;10.45;;;;;;;;;;5109722;28;20031;-72
2021/12/23 13:34:07;;;;;;;17.15;10.35;;;;;;;;;;5110126;28;20024;-68
2021/12/23 13:36:34;;;;;;;20.05;10.07;;;;;;;;;;5108616;28;20024;-70
2021/12/23 13:39:03;;;;;;;15.18;8.88;;;;;;;;;;5108905;28;20042;-71
2021/12/23 13:42:53;;;;;;;10.05;5.22;;;;;;;;;;5109989;27;20437;-69
2021/12/23 13:46:14;;;;;;;17.60;9.85;;;;;;;;;;5109782;27;21127;-70
2021/12/23 13:49:06;;;;;;;25.58;16.38;;;;;;;;;;5109938;28;20468;-71
2021/12/23 13:51:37;;;;;;;12.10;7.73;;;;;;;;;;5102581;28;20035;-70
2021/12/23 13:54:03;;;;;;;11.18;5.85;;;;;;;;;;5104002;28;20246;-69
2021/12/23 13:56:31;;;;;;;15.55;8.32;;;;;;;;;;5107642;28;20099;-69
2021/12/23 13:59:19;;;;;;;13.27;9.35;;;;;;;;;;5110181;28;20020;-69
2021/12/23 14:02:54;;;;;;;12.70;6.65;;;;;;;;;;5109576;27;20769;-75
2021/12/23 14:10:01;;;;;;;15.82;8.40;;;;;;;;;;5109067;27;21030;-73
2021/12/23 14:12:42;;;;;;;13.60;7.45;;;;;;;;;;5108678;28;20039;-73
2021/12/23 14:17:01;;;;;;;10.77;6.32;;;;;;;;;;5109658;27;20392;-73
2021/12/23 14:19:48;;;;;;;12.55;6.95;;;;;;;;;;5110808;28;20095;-73
2021/12/23 14:27:09;;;;;;;16.42;10.73;;;;;;;;;;5108952;27;20385;-72
2021/12/23 14:30:00;;;;;;;22.42;14.13;;;;;;;;;;5109773;27;20450;-72
2021/12/23 14:34:27;;;;;;;33.33;20.73;;;;;;;;;;5110380;27;20654;-73
2021/12/23 14:36:55;;;;;;;32.70;19.00;;;;;;;;;;5110615;28;20055;-73
2021/12/23 14:42:29;;;;;;;19.77;11.20;;;;;;;;;;5112031;27;20943;-73
2021/12/23 14:45:00;;;;;;;31.23;17.65;;;;;;;;;;5111224;28;20032;-73
2021/12/23 14:47:29;;;;;;;23.80;15.18;;;;;;;;;;5111319;28;20066;-73
2021/12/23 14:52:36;;;;;;;35.75;22.02;;;;;;;;;;5110648;28;20032;-72
2021/12/23 14:55:10;;;;;;;42.60;24.45;;;;;;;;;;5110820;28;20141;-72
2021/12/23 14:57:55;;;;;;;62.03;35.53;;;;;;;;;;5110804;28;20024;-72
2021/12/23 15:00:27;;;;;;;70.13;46.58;;;;;;;;;;5110231;28;20031;-72
2021/12/23 15:03:13;;;;;;;68.93;49.08;;;;;;;;;;5110668;28;20107;-73
2021/12/23 15:05:40;;;;;;;84.15;59.83;;;;;;;;;;5110674;28;20093;-73
2021/12/23 15:08:08;;;;;;;114.68;68.07;;;;;;;;;;5110331;28;20073;-72
2021/12/23 15:10:45;;;;;;;138.40;80.03;;;;;;;;;;5110426;28;20422;-72
2021/12/23 15:13:16;;;;;;;115.82;65.00;;;;;;;;;;5110137;28;20024;-72
2021/12/23 15:15:43;;;;;;;105.85;62.97;;;;;;;;;;5110465;28;20468;-72
2021/12/23 15:18:26;;;;;;;103.20;59.75;;;;;;;;;;5110447;28;20028;-72
2021/12/23 15:20:54;;;;;;;66.75;39.85;;;;;;;;;;5110128;28;20024;-72
2021/12/23 15:23:36;;;;;;;78.93;47.28;;;;;;;;;;5110417;28;20023;-72
2021/12/23 15:26:02;;;;;;;107.97;55.63;;;;;;;;;;5110315;28;20422;-73
2021/12/23 15:28:29;;;;;;;106.43;56.72;;;;;;;;;;5109920;28;20045;-72
2021/12/23 15:30:56;;;;;;;94.25;52.13;;;;;;;;;;5110213;28;20034;-72
2021/12/23 15:33:22;;;;;;;69.72;41.63;;;;;;;;;;5110212;28;20062;-72
2021/12/23 15:35:48;;;;;;;73.03;39.63;;;;;;;;;;5109846;28;20028;-73
2021/12/23 15:38:17;;;;;;;77.28;45.72;;;;;;;;;;5109993;28;20023;-73
2021/12/23 15:40:43;;;;;;;117.60;59.45;;;;;;;;;;5109722;28;20079;-73
2021/12/23 15:43:10;;;;;;;141.50;69.75;;;;;;;;;;5109705;28;20035;-72
2021/12/23 15:45:38;;;;;;;160.93;77.20;;;;;;;;;;5110344;28;20048;-72
2021/12/23 15:48:07;;;;;;;217.38;93.63;;;;;;;;;;5109975;28;20020;-73
2021/12/23 15:50:36;;;;;;;200.00;95.28;;;;;;;;;;5109453;28;20023;-73
2021/12/23 15:53:03;;;;;;;232.13;108.68;;;;;;;;;;5100627;28;20030;-74
2021/12/23 15:55:31;;;;;;;207.48;104.38;;;;;;;;;;5096280;28;20056;-72
2021/12/23 15:57:57;;;;;;;163.18;85.25;;;;;;;;;;5094852;28;20529;-73
2021/12/23 16:00:24;;;;;;;152.38;75.72;;;;;;;;;;5096046;28;20024;-73
2021/12/23 16:02:51;;;;;;;141.20;70.70;;;;;;;;;;5095600;28;20043;-73
2021/12/23 16:07:45;;;;;;;239.65;120.18;;;;;;;;;;5095841;28;20028;-72
2021/12/23 16:10:13;;;;;;;185.90;103.68;;;;;;;;;;5095408;28;20133;-72
2021/12/23 16:12:40;;;;;;;156.98;87.78;;;;;;;;;;5096079;28;20188;-72
2021/12/23 16:15:08;;;;;;;157.60;83.75;;;;;;;;;;5095728;28;20024;-72
2021/12/23 16:17:34;;;;;;;118.70;61.72;;;;;;;;;;5095225;28;20473;-72
2021/12/23 16:20:00;;;;;;;69.13;41.78;;;;;;;;;;5095524;28;20038;-72
2021/12/23 16:22:27;;;;;;;74.57;38.42;;;;;;;;;;5095403;28;20028;-72